Time;durP1;ratioP1;P1;durP2;ratioP2;P2;SDS_P1;SDS_P2;PMS_P1;PMS_P2;Temp;Humidity;BMP_temperature;BMP_pressure;BME280_temperature;BME280_humidity;BME280_pressure;Samples;Min_cycle;Max_cycle;Signal;HPM_P1;HPM_P2
2023/07/02 07:57:20;;;;;;;4.13;3.27;;;;;;;40.08;17.22;98233.88;5072432;28;20093;-56
2023/07/02 07:59:46;;;;;;;5.32;3.30;;;;;;;42.84;15.28;98234.63;5072109;28;20348;-56
2023/07/02 08:02:11;;;;;;;5.68;3.38;;;;;;;42.59;15.10;98234.25;5072637;28;20116;-57
2023/07/02 08:04:37;;;;;;;5.80;3.10;;;;;;;40.94;16.26;98245.56;5072717;28;20359;-57
2023/07/02 08:07:04;;;;;;;4.72;3.25;;;;;;;39.58;18.01;98239.75;5072525;28;20039;-59
2023/07/02 08:09:29;;;;;;;4.78;3.63;;;;;;;37.72;19.28;98237.00;5072694;28;20116;-57
2023/07/02 08:11:55;;;;;;;4.05;3.30;;;;;;;36.51;21.11;98247.53;5072840;28;20056;-57
2023/07/02 08:14:20;;;;;;;3.65;3.35;;;;;;;35.65;21.79;98251.09;5092863;28;20084;-58
2023/07/02 08:16:46;;;;;;;7.35;3.40;;;;;;;34.45;23.13;98245.50;5091715;28;20357;-57
2023/07/02 08:19:12;;;;;;;5.13;3.20;;;;;;;33.69;24.41;98252.78;5091264;28;20028;-57
2023/07/02 08:21:37;;;;;;;4.57;3.40;;;;;;;34.94;22.69;98241.88;5091142;28;20093;-58
2023/07/02 08:24:03;;;;;;;5.10;3.40;;;;;;;36.74;20.63;98250.88;5092542;28;20039;-60
2023/07/02 08:26:29;;;;;;;5.55;3.33;;;;;;;37.45;19.95;98244.81;5092533;28;20028;-57
2023/07/02 08:28:55;;;;;;;3.70;3.28;;;;;;;37.02;20.10;98250.41;5089314;28;20461;-56
2023/07/02 08:31:20;;;;;;;6.15;3.38;;;;;;;35.99;21.44;98251.34;5092315;28;20028;-64
2023/07/02 08:33:46;;;;;;;6.32;3.20;;;;;;;34.93;22.21;98240.22;5093048;28;20055;-59
2023/07/02 08:36:13;;;;;;;7.70;3.55;;;;;;;33.89;23.30;98234.78;5089646;28;20043;-58
2023/07/02 08:38:41;;;;;;;6.47;3.30;;;;;;;32.95;25.30;98245.66;5092106;28;20039;-55
2023/07/02 08:41:08;;;;;;;5.10;3.65;;;;;;;32.13;26.35;98244.19;5092048;28;20028;-59
2023/07/02 08:43:35;;;;;;;7.82;3.63;;;;;;;31.39;27.52;98247.66;5092618;28;20024;-59
2023/07/02 08:46:01;;;;;;;6.15;3.60;;;;;;;30.78;28.48;98251.78;5092476;28;20031;-58
2023/07/02 08:48:29;;;;;;;6.38;3.50;;;;;;;30.28;28.95;98254.88;5092200;28;20434;-59
2023/07/02 08:50:55;;;;;;;5.90;3.38;;;;;;;29.88;29.64;98254.94;5090520;28;20028;-56
2023/07/02 08:53:25;;;;;;;5.35;3.35;;;;;;;29.71;30.95;98240.78;5074596;28;20343;-58
2023/07/02 08:55:51;;;;;;;9.13;3.70;;;;;;;29.79;30.49;98251.16;5092541;28;20035;-56
2023/07/02 08:58:16;;;;;;;6.13;3.55;;;;;;;30.02;30.32;98251.53;5090117;28;20048;-54
2023/07/02 09:01:06;;;;;;;6.70;3.85;;;;;;;30.41;29.02;98244.22;5092108;28;20051;-59
2023/07/02 09:03:32;;;;;;;7.80;3.50;;;;;;;29.83;29.89;98215.56;5092017;28;20408;-55
2023/07/02 09:05:58;;;;;;;8.18;3.80;;;;;;;29.61;30.17;98233.41;5091979;28;20028;-57
2023/07/02 09:08:25;;;;;;;5.40;4.00;;;;;;;29.29;30.83;98235.56;5092255;28;20031;-60
2023/07/02 09:10:50;;;;;;;9.27;4.18;;;;;;;29.14;31.69;98232.91;5094087;28;20032;-56
2023/07/02 09:13:16;;;;;;;6.50;3.75;;;;;;;29.16;31.75;98239.78;5090690;28;20431;-55
2023/07/02 09:15:42;;;;;;;7.10;3.90;;;;;;;29.19;31.37;98241.16;5075660;28;20032;-55
2023/07/02 09:18:21;;;;;;;6.82;3.92;;;;;;;29.42;30.60;98249.81;5075257;28;20035;-56
2023/07/02 09:20:50;;;;;;;6.20;4.10;;;;;;;29.49;30.74;98242.06;5074954;28;20021;-56
2023/07/02 09:23:15;;;;;;;5.45;3.95;;;;;;;29.42;30.36;98241.53;5075572;28;20454;-56
2023/07/02 09:25:41;;;;;;;8.00;4.05;;;;;;;29.40;30.62;98252.84;5075551;28;20089;-59
2023/07/02 09:28:26;;;;;;;8.00;4.20;;;;;;;29.50;29.52;98260.25;5074759;28;20032;-59
2023/07/02 09:30:57;;;;;;;6.25;4.10;;;;;;;29.44;29.10;98258.66;5074274;28;20048;-59
2023/07/02 09:33:28;;;;;;;6.95;3.80;;;;;;;29.51;28.90;98254.41;5075674;28;20035;-55
2023/07/02 09:35:54;;;;;;;9.15;3.83;;;;;;;29.57;28.38;98249.69;5074942;28;20035;-57
2023/07/02 09:38:20;;;;;;;4.82;3.80;;;;;;;29.63;28.34;98245.78;5075516;28;20035;-57
2023/07/02 09:40:48;;;;;;;3.90;3.55;;;;;;;29.51;27.73;98253.63;5074297;28;20021;-59
2023/07/02 09:43:15;;;;;;;4.72;3.90;;;;;;;29.07;28.40;98249.75;5075137;28;20048;-56
2023/07/02 09:45:44;;;;;;;6.97;4.63;;;;;;;28.67;29.18;98257.91;5073726;28;20466;-54
2023/07/02 09:48:13;;;;;;;7.63;3.70;;;;;;;28.21;29.60;98234.97;5074128;28;20455;-59
2023/07/02 09:50:40;;;;;;;7.80;3.90;;;;;;;28.20;30.17;98238.00;5075516;28;20021;-57
2023/07/02 09:53:05;;;;;;;5.68;3.92;;;;;;;28.53;30.17;98235.66;5074906;28;20064;-58
2023/07/02 09:55:32;;;;;;;8.43;3.95;;;;;;;28.61;29.23;98215.81;5075477;28;20416;-55
2023/07/02 09:57:57;;;;;;;5.55;4.18;;;;;;;29.10;28.20;98235.41;5074697;28;20049;-57
2023/07/02 10:00:23;;;;;;;6.57;4.20;;;;;;;29.34;27.85;98245.72;5075424;28;20051;-58
2023/07/02 10:02:49;;;;;;;5.53;4.13;;;;;;;29.40;27.56;98240.97;5074587;28;20028;-58
2023/07/02 10:05:32;;;;;;;5.78;4.18;;;;;;;29.60;27.29;98248.31;5074642;28;20032;-56
2023/07/02 10:07:58;;;;;;;5.95;3.97;;;;;;;29.46;28.08;98248.94;5057191;28;20029;-57
2023/07/02 10:10:27;;;;;;;5.55;3.95;;;;;;;29.39;27.70;98251.19;5075662;28;20035;-61
2023/07/02 10:12:53;;;;;;;5.05;3.70;;;;;;;29.32;28.55;98247.94;5076223;28;20025;-59
2023/07/02 10:15:26;;;;;;;6.55;4.18;;;;;;;29.41;27.71;98248.16;5074432;28;20036;-57
2023/07/02 10:17:59;;;;;;;6.80;4.25;;;;;;;29.19;28.26;98249.41;5074977;28;20036;-57
2023/07/02 10:20:39;;;;;;;4.80;4.03;;;;;;;29.02;28.26;98250.63;5057149;28;20039;-58
2023/07/02 10:23:06;;;;;;;4.60;3.95;;;;;;;28.85;28.24;98255.66;5073865;28;20125;-56
2023/07/02 10:25:34;;;;;;;4.65;3.83;;;;;;;28.81;27.74;98247.13;5074390;28;20028;-61
2023/07/02 10:28:02;;;;;;;7.70;3.83;;;;;;;28.77;27.77;98259.78;5074565;28;20032;-56
2023/07/02 10:30:35;;;;;;;6.32;4.07;;;;;;;28.74;28.06;98263.94;5074447;28;20028;-61
2023/07/02 10:33:25;;;;;;;6.63;3.90;;;;;;;28.52;28.56;98269.81;5074438;28;20103;-59
2023/07/02 10:35:51;;;;;;;5.60;3.97;;;;;;;28.27;28.72;98266.03;5073871;28;20102;-60
2023/07/02 10:38:21;;;;;;;7.72;4.03;;;;;;;28.28;28.93;98269.63;5074277;28;20236;-58
2023/07/02 10:40:53;;;;;;;5.18;3.45;;;;;;;28.06;29.29;98266.03;5056559;28;20028;-60
2023/07/02 10:43:25;;;;;;;5.97;3.83;;;;;;;28.00;29.10;98238.84;5073399;28;20024;-58
2023/07/02 10:45:50;;;;;;;6.32;3.80;;;;;;;28.16;29.13;98254.22;5073949;28;20111;-59
2023/07/02 10:48:16;;;;;;;8.80;3.70;;;;;;;28.33;29.10;98258.59;5073795;28;20136;-60
2023/07/02 10:50:41;;;;;;;6.80;3.88;;;;;;;28.25;29.71;98259.16;5073753;28;20028;-61
2023/07/02 10:53:17;;;;;;;7.22;3.70;;;;;;;28.26;29.84;98260.81;5073492;28;20082;-61
2023/07/02 10:55:43;;;;;;;8.65;4.38;;;;;;;28.27;30.04;98268.78;5073494;28;20071;-58
2023/07/02 10:58:10;;;;;;;4.25;3.38;;;;;;;28.14;29.97;98245.38;5074535;28;20080;-61
2023/07/02 11:00:50;;;;;;;5.85;3.95;;;;;;;28.33;29.58;98259.41;5073539;28;20463;-57
2023/07/02 11:03:23;;;;;;;7.55;4.10;;;;;;;28.10;30.12;98257.25;5056450;28;20024;-58
2023/07/02 11:05:50;;;;;;;6.95;3.60;;;;;;;27.80;30.93;98270.75;5074533;28;20119;-56
2023/07/02 11:08:16;;;;;;;9.80;4.10;;;;;;;27.76;31.75;98272.41;5073200;28;20070;-61
2023/07/02 11:10:41;;;;;;;3.80;3.35;;;;;;;27.84;30.89;98258.09;5073498;28;20119;-61
2023/07/02 11:13:17;;;;;;;6.32;3.42;;;;;;;28.20;30.00;98273.75;5073599;28;20543;-58
2023/07/02 11:15:45;;;;;;;5.88;3.58;;;;;;;28.32;29.82;98274.25;5073147;28;20028;-57
2023/07/02 11:18:16;;;;;;;6.40;3.65;;;;;;;28.39;29.12;98253.91;5073240;28;20332;-58
2023/07/02 11:20:42;;;;;;;6.63;3.40;;;;;;;28.35;28.65;98268.22;5074301;28;20024;-54
2023/07/02 11:23:31;;;;;;;7.15;3.50;;;;;;;28.55;28.63;98265.69;5073293;28;20024;-57
2023/07/02 11:25:58;;;;;;;6.72;3.45;;;;;;;28.50;28.31;98272.84;5073482;28;20150;-56
2023/07/02 11:28:25;;;;;;;4.20;3.42;;;;;;;28.55;28.35;98266.47;5072860;28;20024;-55
2023/07/02 11:30:50;;;;;;;5.78;3.58;;;;;;;28.57;28.53;98269.78;5073283;28;20315;-58
2023/07/02 11:33:16;;;;;;;6.20;3.65;;;;;;;28.40;27.33;98258.31;5072533;28;20427;-55
2023/07/02 11:35:43;;;;;;;6.30;3.08;;;;;;;28.09;28.01;98248.16;5072585;28;20089;-58
2023/07/02 11:38:12;;;;;;;8.63;3.58;;;;;;;28.00;27.69;98280.09;5072978;28;20351;-53
2023/07/02 11:40:38;;;;;;;5.68;3.28;;;;;;;27.74;27.77;98269.13;5072485;28;20426;-59
2023/07/02 11:43:05;;;;;;;5.63;3.50;;;;;;;27.40;28.17;98255.88;5073319;28;20110;-57
2023/07/02 11:45:31;;;;;;;12.32;3.38;;;;;;;27.44;28.86;98262.47;5072383;28;20032;-65
2023/07/02 11:47:57;;;;;;;4.60;3.42;;;;;;;27.46;28.82;98268.50;5072378;28;20039;-54
2023/07/02 11:50:22;;;;;;;6.18;3.47;;;;;;;27.45;28.41;98261.34;5076008;28;20553;-55
2023/07/02 11:52:48;;;;;;;7.57;3.40;;;;;;;27.51;28.54;98265.81;5072709;28;20141;-54
2023/07/02 11:55:13;;;;;;;7.75;3.50;;;;;;;27.49;28.23;98260.56;5072855;28;20118;-51
2023/07/02 11:57:39;;;;;;;9.73;4.07;;;;;;;27.48;27.57;98255.31;5072917;28;20139;-55
2023/07/02 12:00:05;;;;;;;10.95;4.00;;;;;;;27.49;27.75;98267.94;5072724;28;20033;-52
2023/07/02 12:02:31;;;;;;;8.88;3.85;;;;;;;27.50;28.18;98267.69;5071610;28;20027;-56
2023/07/02 12:04:56;;;;;;;8.63;3.67;;;;;;;27.54;27.46;98265.25;5073667;28;20036;-54
2023/07/02 12:07:22;;;;;;;13.80;3.88;;;;;;;27.72;27.98;98266.63;5069348;28;20450;-55
2023/07/02 12:09:47;;;;;;;6.53;4.05;;;;;;;27.63;27.11;98269.09;5071046;28;20051;-56
2023/07/02 12:12:13;;;;;;;6.53;4.00;;;;;;;27.67;27.44;98271.28;5071157;28;20112;-53
2023/07/02 12:14:43;;;;;;;9.90;4.03;;;;;;;27.73;27.92;98272.94;5073151;28;20035;-51
2023/07/02 12:17:08;;;;;;;6.68;3.72;;;;;;;27.79;27.81;98266.34;5072692;28;20120;-56
2023/07/02 12:19:34;;;;;;;6.15;3.95;;;;;;;27.85;26.90;98270.75;5072508;28;20112;-56
2023/07/02 12:21:59;;;;;;;9.20;3.58;;;;;;;27.80;27.26;98268.81;5072668;28;20417;-54
2023/07/02 12:24:25;;;;;;;5.68;3.80;;;;;;;27.74;27.84;98272.69;5073035;28;20403;-51
2023/07/02 12:26:50;;;;;;;6.75;4.05;;;;;;;27.48;28.73;98241.56;5072618;28;20036;-50
2023/07/02 12:29:16;;;;;;;6.28;3.88;;;;;;;27.50;28.54;98269.63;5073222;28;20029;-54
2023/07/02 12:31:41;;;;;;;4.57;3.42;;;;;;;27.35;28.49;98270.41;5072385;28;20098;-55
2023/07/02 12:34:07;;;;;;;5.97;3.83;;;;;;;27.08;28.93;98268.72;5072363;28;20044;-54
2023/07/02 12:36:32;;;;;;;9.27;4.22;;;;;;;26.82;28.67;98246.66;5072014;28;20029;-55
2023/07/02 12:38:58;;;;;;;4.97;3.45;;;;;;;26.78;28.92;98253.78;5071002;28;20308;-50
2023/07/02 12:41:23;;;;;;;5.15;3.50;;;;;;;26.82;28.26;98252.16;5072305;28;20044;-51
2023/07/02 12:43:48;;;;;;;7.82;3.90;;;;;;;26.88;29.21;98264.81;5072868;28;20398;-49
2023/07/02 12:46:14;;;;;;;9.32;3.67;;;;;;;26.77;28.83;98269.44;5073915;28;20021;-52
2023/07/02 12:48:40;;;;;;;6.25;3.60;;;;;;;26.57;28.23;98266.63;5076002;28;20411;-50
2023/07/02 12:51:05;;;;;;;7.35;3.65;;;;;;;26.61;28.92;98282.25;5077265;28;20064;-57
2023/07/02 12:53:30;;;;;;;8.68;3.90;;;;;;;26.77;28.71;98258.47;5076320;28;20029;-49
2023/07/02 12:55:56;;;;;;;7.32;3.88;;;;;;;26.99;28.31;98259.38;5076137;28;20120;-52
2023/07/02 12:58:22;;;;;;;5.47;3.47;;;;;;;27.16;28.00;98265.47;5075902;28;20070;-49
2023/07/02 13:00:47;;;;;;;6.28;3.88;;;;;;;27.30;27.61;98285.00;5074218;28;20428;-53
2023/07/02 13:03:14;;;;;;;9.07;4.00;;;;;;;27.26;27.93;98278.41;5076706;28;20064;-52
2023/07/02 13:05:39;;;;;;;5.97;3.55;;;;;;;27.08;28.20;98246.75;5094879;28;20024;-55
2023/07/02 13:08:06;;;;;;;4.38;3.60;;;;;;;26.98;28.23;98253.03;5094541;28;20076;-57
2023/07/02 13:10:33;;;;;;;8.75;4.25;;;;;;;26.84;29.53;98271.91;5093545;28;20031;-62
2023/07/02 13:12:59;;;;;;;6.55;4.30;;;;;;;26.62;29.81;98283.91;5072212;28;20477;-56
2023/07/02 13:15:25;;;;;;;6.95;3.75;;;;;;;26.57;29.54;98283.91;5075607;28;20032;-56
2023/07/02 13:17:51;;;;;;;8.07;4.20;;;;;;;26.53;28.80;98266.31;5075201;28;20086;-49
2023/07/02 13:20:16;;;;;;;7.85;4.57;;;;;;;26.62;28.62;98288.59;5080279;28;20020;-54
2023/07/02 13:22:42;;;;;;;8.20;4.60;;;;;;;26.58;29.20;98287.47;5075589;28;20407;-51
2023/07/02 13:25:07;;;;;;;8.20;4.28;;;;;;;26.56;28.78;98282.25;5075384;28;20032;-56
2023/07/02 13:27:33;;;;;;;8.80;4.40;;;;;;;26.53;28.87;98273.75;5075124;28;20032;-52
2023/07/02 13:29:59;;;;;;;5.55;4.20;;;;;;;26.46;28.26;98283.00;5075328;28;20025;-49
2023/07/02 13:32:25;;;;;;;9.05;4.47;;;;;;;26.37;28.67;98287.38;5074592;28;20020;-55
2023/07/02 13:34:50;;;;;;;7.28;4.28;;;;;;;26.25;29.31;98278.50;5073257;28;20358;-56
2023/07/02 13:37:18;;;;;;;8.82;3.95;;;;;;;26.22;29.15;98275.19;5055646;28;20181;-56
2023/07/02 13:39:45;;;;;;;9.25;4.13;;;;;;;26.31;29.15;98285.69;5073443;28;20025;-56
2023/07/02 13:42:10;;;;;;;6.57;4.60;;;;;;;26.23;28.15;98282.34;5071910;28;20157;-54
2023/07/02 13:44:36;;;;;;;6.05;4.32;;;;;;;26.20;28.42;98271.09;5073674;28;20469;-52
2023/07/02 13:47:01;;;;;;;7.55;4.75;;;;;;;26.22;29.00;98277.94;5074268;28;20104;-57
2023/07/02 13:49:27;;;;;;;6.90;4.65;;;;;;;26.30;29.15;98262.09;5075169;28;20238;-54
2023/07/02 13:51:53;;;;;;;8.18;4.95;;;;;;;26.42;29.25;98273.66;5075165;28;20036;-53
2023/07/02 13:54:19;;;;;;;9.77;5.00;;;;;;;26.22;28.96;98239.53;5074983;28;20109;-54
2023/07/02 13:56:45;;;;;;;10.45;4.75;;;;;;;26.42;29.51;98281.09;5074039;28;20074;-60
2023/07/02 13:59:11;;;;;;;5.57;4.35;;;;;;;26.31;27.59;98272.78;5075410;28;20094;-58
2023/07/02 14:01:36;;;;;;;8.27;4.80;;;;;;;26.24;27.55;98283.19;5075050;28;20457;-55
2023/07/02 14:04:03;;;;;;;5.07;4.45;;;;;;;26.16;27.40;98287.25;5074874;28;20032;-55
2023/07/02 14:06:29;;;;;;;7.72;4.80;;;;;;;26.03;27.69;98288.50;5075581;28;20439;-60
2023/07/02 14:08:55;;;;;;;6.88;4.22;;;;;;;25.89;27.75;98279.91;5075033;28;20033;-56
2023/07/02 14:11:23;;;;;;;7.82;4.35;;;;;;;25.91;28.41;98296.06;5076043;28;20078;-53
2023/07/02 14:13:48;;;;;;;7.05;4.38;;;;;;;25.84;28.49;98290.84;5074604;28;20036;-55
2023/07/02 14:16:14;;;;;;;5.47;4.35;;;;;;;25.77;29.29;98284.72;5074611;28;20032;-54
2023/07/02 14:18:39;;;;;;;11.90;4.22;;;;;;;25.74;29.72;98290.72;5074425;28;20035;-59
2023/07/02 14:21:06;;;;;;;5.90;4.38;;;;;;;25.62;30.07;98293.66;5073950;28;20040;-55
2023/07/02 14:23:32;;;;;;;8.50;4.05;;;;;;;25.47;30.57;98297.06;5074096;28;20068;-55
2023/07/02 14:25:58;;;;;;;6.55;4.18;;;;;;;25.40;30.74;98290.97;5073147;28;20032;-51
2023/07/02 14:28:25;;;;;;;7.10;3.50;;;;;;;25.39;30.95;98301.06;5073510;28;20054;-57
2023/07/02 14:31:03;;;;;;;6.18;4.13;;;;;;;25.42;31.00;98299.75;5073946;28;20114;-56
2023/07/02 14:33:30;;;;;;;8.95;4.53;;;;;;;25.31;31.17;98296.88;5073921;28;20033;-58
2023/07/02 14:35:57;;;;;;;9.05;4.20;;;;;;;25.27;31.28;98295.75;5073941;28;20032;-56
2023/07/02 14:38:23;;;;;;;6.40;4.15;;;;;;;25.06;30.76;98254.47;5073195;28;20028;-56
2023/07/02 14:40:50;;;;;;;10.50;4.90;;;;;;;25.31;31.24;98301.56;5074197;28;20061;-58
2023/07/02 14:43:16;;;;;;;7.80;4.07;;;;;;;25.33;31.19;98305.69;5074450;28;20024;-56
2023/07/02 14:45:47;;;;;;;9.02;4.05;;;;;;;25.31;30.97;98294.16;5074025;28;20032;-56
2023/07/02 14:48:12;;;;;;;7.93;4.38;;;;;;;25.31;30.60;98301.56;5075135;28;20393;-54
2023/07/02 14:50:56;;;;;;;7.38;4.70;;;;;;;25.27;30.80;98284.78;5073958;28;20516;-56
2023/07/02 14:53:22;;;;;;;9.63;5.05;;;;;;;25.27;30.66;98303.97;5073611;28;20050;-55
2023/07/02 14:55:48;;;;;;;8.27;4.65;;;;;;;25.21;30.26;98299.53;5073957;28;20120;-53
2023/07/02 14:58:17;;;;;;;7.72;5.40;;;;;;;25.20;30.42;98308.84;5073565;28;20044;-52
2023/07/02 15:00:47;;;;;;;10.52;6.15;;;;;;;25.26;30.31;98307.78;5074574;28;20036;-57
2023/07/02 15:03:14;;;;;;;11.60;5.57;;;;;;;25.17;30.36;98298.41;5073000;28;20028;-56
2023/07/02 15:05:40;;;;;;;9.93;5.60;;;;;;;25.13;30.59;98302.75;5073927;28;20058;-58
2023/07/02 15:08:08;;;;;;;8.65;5.15;;;;;;;25.05;30.72;98302.09;5072342;28;20063;-54
2023/07/02 15:10:34;;;;;;;8.88;5.90;;;;;;;24.99;31.29;98305.84;5073500;28;20017;-57
2023/07/02 15:13:00;;;;;;;10.40;5.47;;;;;;;24.91;31.37;98307.13;5073253;28;20093;-53
2023/07/02 15:15:25;;;;;;;13.82;5.32;;;;;;;24.88;31.14;98307.66;5072306;28;20036;-54
2023/07/02 15:17:51;;;;;;;8.63;5.28;;;;;;;24.86;31.17;98307.06;5072757;28;20025;-58
2023/07/02 15:20:17;;;;;;;6.80;5.03;;;;;;;24.85;31.33;98305.44;5072396;28;20059;-58
2023/07/02 15:22:42;;;;;;;9.15;5.55;;;;;;;24.75;31.83;98297.91;5073111;28;20123;-56
2023/07/02 15:25:08;;;;;;;6.78;5.32;;;;;;;24.71;31.76;98298.63;5072455;28;20144;-58
2023/07/02 15:27:33;;;;;;;9.45;5.63;;;;;;;24.73;31.76;98312.91;5073426;28;20111;-56
2023/07/02 15:29:59;;;;;;;12.65;5.30;;;;;;;24.72;31.87;98298.41;5073012;28;20025;-57
2023/07/02 15:32:25;;;;;;;8.10;5.03;;;;;;;24.61;31.81;98289.22;5072900;28;20036;-55
2023/07/02 15:34:50;;;;;;;7.88;5.53;;;;;;;24.77;32.02;98305.88;5055600;28;20032;-54
2023/07/02 15:37:17;;;;;;;7.28;4.63;;;;;;;24.66;32.05;98310.38;5073240;28;20064;-55
2023/07/02 15:39:42;;;;;;;9.68;5.15;;;;;;;24.65;32.46;98297.78;5074409;28;20051;-55
2023/07/02 15:42:08;;;;;;;10.18;5.97;;;;;;;24.63;32.87;98299.94;5073080;28;20067;-51
2023/07/02 15:44:34;;;;;;;10.15;5.63;;;;;;;24.64;32.71;98294.19;5073114;28;20021;-57
2023/07/02 15:47:00;;;;;;;8.18;5.35;;;;;;;24.60;32.39;98294.97;5073394;28;20097;-54
2023/07/02 15:49:25;;;;;;;6.93;5.28;;;;;;;24.63;32.31;98294.47;5073225;28;20028;-57
2023/07/02 15:51:51;;;;;;;6.38;5.15;;;;;;;24.79;32.35;98309.19;5073247;28;20093;-54
2023/07/02 15:54:17;;;;;;;7.03;5.30;;;;;;;24.87;32.51;98297.78;5073162;28;20020;-56
2023/07/02 15:56:43;;;;;;;15.48;5.85;;;;;;;24.93;32.56;98298.69;5073445;28;20443;-56
2023/07/02 15:59:08;;;;;;;19.75;6.50;;;;;;;24.86;32.61;98298.88;5072864;28;20045;-53
2023/07/02 16:01:37;;;;;;;15.32;5.82;;;;;;;24.83;32.75;98317.69;5073833;28;20099;-58
2023/07/02 16:04:07;;;;;;;8.18;5.30;;;;;;;24.76;33.13;98313.25;5088884;28;20545;-57
2023/07/02 16:06:33;;;;;;;9.38;5.70;;;;;;;24.72;33.16;98319.47;5092220;28;20024;-51
2023/07/02 16:09:04;;;;;;;11.85;5.65;;;;;;;24.72;33.50;98314.81;5093119;28;20024;-52
2023/07/02 16:11:33;;;;;;;13.40;6.00;;;;;;;24.64;33.44;98304.31;5091074;28;20036;-56
2023/07/02 16:14:02;;;;;;;13.18;5.25;;;;;;;24.55;33.69;98298.47;5092928;28;20038;-58
2023/07/02 16:16:30;;;;;;;11.50;5.25;;;;;;;24.51;33.90;98317.28;5092939;28;20118;-54
2023/07/02 16:18:55;;;;;;;7.82;5.72;;;;;;;24.48;34.16;98312.31;5092815;28;20027;-53
2023/07/02 16:21:21;;;;;;;9.57;5.88;;;;;;;24.49;33.89;98315.88;5090807;28;20342;-58
2023/07/02 16:23:46;;;;;;;9.77;5.97;;;;;;;24.49;34.13;98322.19;5093144;28;20368;-59
2023/07/02 16:26:12;;;;;;;12.63;6.00;;;;;;;24.48;33.75;98311.50;5093188;28;20024;-53
2023/07/02 16:28:37;;;;;;;9.80;5.88;;;;;;;24.27;34.62;98297.53;5091459;28;20362;-54
2023/07/02 16:31:04;;;;;;;7.78;5.57;;;;;;;24.34;34.81;98327.41;5090756;28;20035;-58
2023/07/02 16:33:34;;;;;;;9.60;5.80;;;;;;;24.25;34.88;98316.09;5091977;28;20032;-58
2023/07/02 16:36:05;;;;;;;15.55;6.63;;;;;;;24.21;35.15;98310.31;5092691;28;20028;-54
2023/07/02 16:38:32;;;;;;;11.07;6.03;;;;;;;24.10;35.02;98315.88;5092477;28;20050;-58
2023/07/02 16:40:58;;;;;;;13.15;5.70;;;;;;;24.07;35.11;98314.44;5089314;28;20127;-52
2023/07/02 16:43:25;;;;;;;9.23;5.60;;;;;;;24.02;34.67;98317.09;5092546;28;20020;-56
2023/07/02 16:45:56;;;;;;;9.77;6.38;;;;;;;23.93;34.71;98313.94;5092211;28;20039;-53
2023/07/02 16:48:23;;;;;;;10.52;6.13;;;;;;;23.90;34.71;98315.28;5092505;28;20035;-56
2023/07/02 16:50:55;;;;;;;12.40;5.85;;;;;;;23.88;34.79;98314.69;5090594;28;20089;-60
2023/07/02 16:53:20;;;;;;;13.93;6.65;;;;;;;23.81;34.98;98319.47;5092209;28;20032;-55
2023/07/02 16:55:46;;;;;;;9.43;5.78;;;;;;;23.74;35.21;98316.91;5091464;28;20058;-57
2023/07/02 16:58:11;;;;;;;9.27;5.80;;;;;;;23.57;35.44;98294.22;5091186;28;20048;-55
2023/07/02 17:00:37;;;;;;;8.70;5.68;;;;;;;23.65;35.31;98312.94;5090207;28;20036;-56
2023/07/02 17:03:03;;;;;;;9.00;5.82;;;;;;;23.59;35.76;98324.84;5076688;28;20431;-53
2023/07/02 17:05:29;;;;;;;7.13;5.63;;;;;;;23.49;36.25;98325.50;5071937;28;20036;-58
2023/07/02 17:07:54;;;;;;;10.20;5.38;;;;;;;23.38;36.37;98321.75;5071089;28;20028;-62
2023/07/02 17:10:20;;;;;;;9.55;6.05;;;;;;;23.32;36.63;98326.28;5069394;28;20036;-64
2023/07/02 17:12:45;;;;;;;8.90;6.10;;;;;;;23.18;36.60;98311.25;5070983;28;20431;-65
2023/07/02 17:15:11;;;;;;;11.93;6.05;;;;;;;23.14;36.38;98321.81;5071682;28;20033;-64
2023/07/02 17:17:36;;;;;;;9.15;5.90;;;;;;;22.91;36.64;98303.63;5070443;28;20036;-64
2023/07/02 17:20:02;;;;;;;12.40;5.80;;;;;;;22.87;36.71;98318.81;5071543;28;20111;-63
2023/07/02 17:22:31;;;;;;;13.50;6.28;;;;;;;22.90;37.04;98342.88;5071326;28;20028;-62
2023/07/02 17:25:00;;;;;;;13.32;6.10;;;;;;;22.83;37.32;98351.22;5071107;28;20033;-64
2023/07/02 17:27:27;;;;;;;9.70;5.93;;;;;;;22.78;37.24;98360.13;5051290;28;20029;-62
2023/07/02 17:29:56;;;;;;;10.63;6.05;;;;;;;22.67;37.12;98344.63;5067184;28;20028;-64
2023/07/02 17:32:23;;;;;;;6.93;5.50;;;;;;;22.61;37.83;98359.19;5072468;28;20073;-63
2023/07/02 17:34:48;;;;;;;12.82;6.40;;;;;;;22.52;37.47;98353.25;5075098;28;20037;-62
2023/07/02 17:37:16;;;;;;;13.05;6.38;;;;;;;22.47;37.94;98359.44;5074129;28;20342;-62
2023/07/02 17:39:43;;;;;;;9.90;6.18;;;;;;;22.44;38.14;98356.31;5076053;28;20351;-63
2023/07/02 17:42:09;;;;;;;8.52;6.82;;;;;;;22.37;38.17;98359.16;5075101;28;20135;-63
2023/07/02 17:44:42;;;;;;;8.38;6.60;;;;;;;22.35;38.24;98364.88;5073507;28;20511;-65
2023/07/02 17:47:14;;;;;;;7.75;5.68;;;;;;;22.26;38.78;98365.47;5068192;28;20056;-62
2023/07/02 17:49:41;;;;;;;12.95;6.00;;;;;;;22.14;38.86;98376.34;5076507;28;20744;-63
2023/07/02 17:52:09;;;;;;;7.43;6.15;;;;;;;22.06;38.98;98366.63;5074312;28;20165;-64
2023/07/02 17:54:41;;;;;;;10.10;6.15;;;;;;;22.03;38.85;98375.28;5074184;28;20032;-63
2023/07/02 17:57:09;;;;;;;9.80;6.05;;;;;;;21.90;38.93;98374.41;5095060;28;20058;-63
2023/07/02 17:59:35;;;;;;;13.93;6.82;;;;;;;21.84;39.32;98379.97;5089840;28;20036;-66
2023/07/02 18:02:02;;;;;;;16.48;6.28;;;;;;;21.76;39.23;98381.97;5093324;28;20044;-65
2023/07/02 18:04:28;;;;;;;13.98;6.38;;;;;;;21.52;39.69;98342.91;5094160;28;20027;-65
2023/07/02 18:07:06;;;;;;;10.48;6.05;;;;;;;21.75;39.41;98385.75;5095034;28;20031;-63
2023/07/02 18:09:32;;;;;;;9.10;6.18;;;;;;;21.55;40.23;98390.63;5093280;28;20102;-66
2023/07/02 18:11:57;;;;;;;16.02;7.60;;;;;;;21.48;41.17;98393.47;5094372;28;20416;-64
2023/07/02 18:14:25;;;;;;;10.48;6.38;;;;;;;21.41;40.30;98392.69;5094750;28;20035;-65
2023/07/02 18:16:55;;;;;;;11.35;6.10;;;;;;;21.42;40.71;98403.38;5094363;28;20055;-64
2023/07/02 18:19:29;;;;;;;9.52;6.40;;;;;;;21.32;40.66;98401.19;5080094;28;20051;-63
2023/07/02 18:22:00;;;;;;;10.85;6.85;;;;;;;21.20;40.79;98392.97;5074630;28;20031;-62
2023/07/02 18:24:27;;;;;;;12.38;6.57;;;;;;;21.19;41.21;98398.63;5073332;28;20336;-64
2023/07/02 18:26:53;;;;;;;10.10;5.88;;;;;;;21.07;41.10;98382.22;5073859;28;20040;-62
2023/07/02 18:29:18;;;;;;;10.55;6.97;;;;;;;21.00;41.03;98379.63;5075518;28;20028;-62
2023/07/02 18:31:44;;;;;;;13.52;6.88;;;;;;;21.01;41.37;98392.16;5074028;28;20033;-61
2023/07/02 18:34:09;;;;;;;10.18;6.22;;;;;;;20.98;41.43;98389.06;5073521;28;20075;-62
2023/07/02 18:36:37;;;;;;;13.80;6.47;;;;;;;20.93;41.39;98387.00;5074227;28;20115;-62
2023/07/02 18:39:04;;;;;;;11.82;6.40;;;;;;;20.83;41.51;98398.41;5074820;28;20055;-61
2023/07/02 18:41:30;;;;;;;13.75;6.80;;;;;;;20.81;41.98;98397.00;5073217;28;20077;-61
2023/07/02 18:43:55;;;;;;;10.07;7.25;;;;;;;20.68;41.88;98390.59;5073598;28;20032;-61
2023/07/02 18:46:21;;;;;;;8.90;6.80;;;;;;;20.61;42.23;98379.78;5074039;28;20034;-63
2023/07/02 18:48:46;;;;;;;9.93;6.35;;;;;;;20.65;41.93;98385.59;5073980;28;20030;-62
2023/07/02 18:51:12;;;;;;;17.13;6.53;;;;;;;20.61;42.12;98398.00;5071973;28;20040;-61
2023/07/02 18:53:37;;;;;;;11.40;6.40;;;;;;;20.56;42.44;98385.06;5073214;28;20025;-65
2023/07/02 18:56:05;;;;;;;8.43;6.32;;;;;;;20.59;42.29;98405.53;5072086;28;20329;-64
2023/07/02 18:58:33;;;;;;;11.57;6.50;;;;;;;20.54;42.15;98410.84;5073302;28;20044;-62
2023/07/02 19:01:00;;;;;;;14.23;6.35;;;;;;;20.51;42.32;98412.94;5073952;28;20032;-62
2023/07/02 19:03:26;;;;;;;14.52;7.13;;;;;;;20.28;43.17;98380.94;5073566;28;20090;-62
2023/07/02 19:05:51;;;;;;;10.65;6.47;;;;;;;20.20;42.66;98363.03;5071811;28;20362;-59
2023/07/02 19:08:18;;;;;;;13.50;6.75;;;;;;;20.40;43.46;98400.06;5074707;28;20017;-59
2023/07/02 19:10:45;;;;;;;8.52;6.53;;;;;;;20.22;43.14;98373.69;5087573;28;20474;-60
2023/07/02 19:13:12;;;;;;;9.25;6.07;;;;;;;20.30;43.30;98405.19;5092506;28;20116;-59
2023/07/02 19:15:38;;;;;;;12.45;6.78;;;;;;;20.25;43.07;98399.56;5092581;28;20055;-59
2023/07/02 19:18:06;;;;;;;11.18;6.38;;;;;;;20.25;42.80;98397.69;5092388;28;20028;-56
2023/07/02 19:20:34;;;;;;;12.20;6.38;;;;;;;20.21;42.80;98396.47;5084385;28;20031;-55
2023/07/02 19:22:59;;;;;;;11.50;6.55;;;;;;;20.17;43.17;98392.53;5093307;28;20118;-53
2023/07/02 19:25:25;;;;;;;8.68;6.82;;;;;;;20.14;42.75;98391.09;5093656;28;20131;-58
2023/07/02 19:27:51;;;;;;;12.82;6.50;;;;;;;20.12;43.61;98390.50;5091984;28;20043;-56